Springlake, TX (79082)

12:26 PM CDT on July 29, 2014 (GMT -0500)
West Bedford SMB (KTXDIMMI4) Elev 3904 ft | 34.54 °N, 102.34 °W | Change Station

Current weather conditions updated 5 seconds ago

Clear
Clear
70.9 °F
Feels Like 70 °F
N
0.2
Wind Variable Wind from West
Gusts 2.5 mph

Today is forecast to be Much Warmer than yesterday. A few thunderstorms possible.

Today
High -- | Low -- °F
--% Chance of Precip.
Yesterday
High -- | Low -- °F
Precip. -- in
6:58 AM 8:52 PM
Waxing Crescent, 7% visible
Pressure 30.25 in
Visibility 10.0 miles
Clouds Clear
Heat Index 70 °F
Dew Point 66 °F
Humidity 83%
Rainfall 0.00 in
Snow Depth Not available.
UV 11 out of 12
Pollen 3.10 out of 12
Air Quality Not available.
Flu Activity Not available.
METAR KPVW 291715Z AUTO 24005KT 10SM CLR 24/18 A3025 RMK AO2 T02400179

More Conditions Fewer Conditions

Pressure 30.25 in
Visibility 10.0 miles
Clouds Clear
Heat Index 70 °F
Dew Point 66 °F
Humidity 83%
Rainfall 0.00 in
Snow Depth Not available.
UV 11 out of 12
Pollen 3.10 out of 12
Air Quality Not available.
Flu Activity Not available.
METAR KPVW 291715Z AUTO 24005KT 10SM CLR 24/18 A3025 RMK AO2 T02400179

More Conditions Fewer Conditions

Nowcast | as of 12:09 PM CDT on July 29, 2014

An area of mainly light rain will continue to decrease in coverage as it drifts slowly eastward through 2 PM. The rain will generally remain to the west of a Dimmitt to Plainview to Lubbock line with additional rainfall amounts typically ranging from a few hundredths of an inch to 1/4 inch.

×

10-Day Weather Forecast

Almanac

Astronomy

Jul. 29, 2014 Rise Set
Actual Time 6:58 AM CDT 8:52 PM CDT
Civil Twilight 6:30 AM CDT 9:20 PM CDT
Nautical Twilight 5:56 AM CDT 9:54 PM CDT
Astronomical Twilight 5:20 AM CDT 10:29 PM CDT
Moon 9:27 AM CDT 10:16 PM CDT
Length of Visible Light 14h 50m
Length of Day
13h 54m
Tomorrow will be 1m 32s shorter.
Waxing Crescent, 7% of the Moon is Illuminated
Today
Waxing Crescent
Aug 3
First Quarter
Aug 10
Full
Aug 17
Last Quarter
Aug 25
New

Today's Extremes

State Highs State Lows

Community

WunderPhotos

Upload Photos

1,738,797 photos uploaded!

Nearby

Snow Depth

Station Depth Elevation
No new snow has been reported.

Earthquake Activity

City Distance Mag. Time & Date
No recent earthquake activity has been reported nearby.
Minimum magnitude displayed is 2.5.

Coastal Water Temperatures

Place Temperature
No Stations Reporting

Nearby Weather Stations

Station Location Temp. Heat Index Dew Point Humidity Wind Precip. Elev Updated Type
West Bedford SMB, Dimmitt, TX 70.9 °F 70 °F 66 °F 83% West  at  0.2 mph 0.00 in / hr 3904 ft 12:26 PM CDT Rapid Fire

Show More Stations Show Fewer Stations